Kalamazoo Battle Creek International Airport
KAZO : now visible

Airfield :











YOU CAN JOIN US ON...

 
LOGIN :

Register | Disclaimer

   EN    FR    IT 

 









Legend :    VFR   Marginal VFR   IFR   Intensive IFR   Very Intensive IFR
Visi :
Ceiling :
>= 8 km
>= 3000ft
5 to 8 km
1000 to 3000 ft
1500m to 5 km
500 to 1000 ft
800 to 1500m
200 to 500 ft
< 800m
< 200 ft
Symbols :   Thunderstorms  Fog  Heavy snow  Heavy precipitations  Wind > 20 kt






- Airport Elevation : 874 ft
- IATA code : AZO


KAZO - Kalamazoo Battle Creek International

CURRENT METAR :
  • 181110Z 13009KT 3SM -SN BR OVC009 M01/M03 A2992 RMK AO2 UPE1058SNB1058 CIG 006V013 P0002 T10111033

EXPIRED METARs :
  • 181053Z AUTO 13007KT 3SM UP BR BKN008 OVC014 M01/M03 A2993 RMK AO2 SLP148 P0010 I1000 T10111033
  • 181039Z AUTO 13007KT 2SM UP BR SCT009 OVC015 M02/M04 A2995 RMK AO2 P0008 T10171039
  • 181036Z AUTO 12008G17KT 1 3/4SM UP BR FEW009 OVC015 M02/M04 A2995 RMK AO2 P0008 T10171039
  • 181015Z AUTO 12011G17KT 1 3/4SM UP BR BKN016 OVC023 M02/M04 A2997 RMK AO2 P0004 T10221044
  • 180953Z AUTO 12011G17KT 2SM UP BR OVC016 M02/M04 A2999 RMK AO2 UPB01E23B33FZRAE01SNB23E33 PRESFR SLP168 P0008 I1000 T10221044
  • 180948Z AUTO 12009G16KT 2SM UP BR OVC016 M02/M04 A3000 RMK AO2 UPB01E23B33FZRAE01SNB23E33 PRESFR P0007 I1000
  • 180929Z AUTO 13009G20KT 1 1/2SM -SN BKN014 OVC020 M02/M05 A3003 RMK AO2 UPB01E23FZRAE01SNB23 P0004 I1000 T10221050
  • 180925Z AUTO 13010G20KT 2SM -SN SCT012 OVC020 M02/M05 A3003 RMK AO2 UPB01E23FZRAE01SNB23 P0003 I1000 T10221050
  • 180907Z AUTO 13009G16KT 3SM UP OVC012 M02/M05 A3005 RMK AO2 UPB01FZRAE01 P0002 I1000 T10221050
  • 180853Z AUTO 13012G22KT 4SM -FZRA OVC012 M02/M05 A3006 RMK AO2 UPB16E46FZRAB46SNE16 SLP190 P0006 60012 I1000 I3000 T10221050 56033
  • 180826Z AUTO 13014G23KT 5SM UP BKN012 OVC031 M03/M06 A3007 RMK AO2 UPB16SNE16 P0004 T10281056

TAF KAZO
Valid from the 18 at 11:00 until the 19 at 06:00 UTC


181054Z 1811/1906 12012G20KT 4SM -SN BR VV012
TEMPO 1811/1813 1SM -FZRA BR OVC008
FM181300 15012G20KT 1/2SM -RASN FG VV008
FM181500 15014G22KT 1/2SM -RA FG VV005
FM182100 25022G34KT 2SM -SN BR OVC008
FM182300 26024G36KT 4SM -SHSN OVC015



MET'MAP, your aeronautical weather chart ! - Copyright ORBIFLY December 2007 - Disclaimer

ORBIFLY MET'MAP TEAM :

Programming & Development : Alexandra Zaïnal
Concept & original design : Baudouin d'Aumeries
Assistance for programming : Marc-Olivier Méhu
Technical & hardware support : Manuel Goepfert

Contact : metmap@orbifly.com




SOURCES & CREDITS :

   NOAA       Earth
Advisory